Record high temperature 39.4°C Record low temperature -14.6°C Record high gust 68.5 km/h Record high average 47.2 km/h Record daily rain 55.3 mm Record low windchill -17.5°C Record high barometer 1045.0 hPa Record low barometer 970.0 hPa
Daily high pressure 1017.0 hPa Daily low pressure 1016.0 hPa Daily low windchill 8.3°C Daily high heat index 11.9°C Daily high gust speed 3.5 kmh SSW Daily high average speed 2.6 kmh SSW

This page is updated from recent data collected by a WMR200 weather station Use the Reload or Refresh facility on your browser to retrieve the latest data.

Status report of weather station: Bienvenue sur la Station Météo de Godarville



Weather report/warning/Metars

Alexandroupoli Airport , Greece (LGAL) 40-51N 025-55E 3M
May 24, 2019 - 10:20 PM EDT / 2019.05.25 0220 UTC
Wind: Calm:0
Visibility: greater than 7 mile(s):0
Sky conditions: mostly clear
Weather: Towering cumulus clouds observed
Temperature: 57 F (14 C)
Dew Point: 51 F (11 C)
Relative Humidity: 82%
Pressure (altimeter): 29.85 in. Hg (1011 hPa)
ob: LGAL 250220Z 00000KT 9999 FEW025TCU 14/11 Q1011
cycle: 2

Charleroi / Gosselies, Belgium (EBCI) 50-28N 004-27E 192M
May 24, 2019 - 10:20 PM EDT / 2019.05.25 0220 UTC
Wind: from the N (350 degrees) at 3 MPH (3 KT):0
Visibility: greater than 7 mile(s):0
Temperature: 51 F (11 C)
Dew Point: 44 F (7 C)
Relative Humidity: 76%
Pressure (altimeter): 30.03 in. Hg (1017 hPa)
ob: EBCI 250220Z 35003KT CAVOK 11/07 Q1017 NOSIG
cycle: 2

Bruxelles National, Belgium (EBBR) 50-54N 004-32E 58M
May 24, 2019 - 10:20 PM EDT / 2019.05.25 0220 UTC
Wind: Calm:0
Visibility: greater than 7 mile(s):0
Temperature: 46 F (8 C)
Dew Point: 42 F (6 C)
Relative Humidity: 87%
Pressure (altimeter): 30.03 in. Hg (1017 hPa)
ob: EBBR 250220Z 00000KT CAVOK 08/06 Q1017 NOSIG
cycle: 2

Koksijde, Belgium (EBFN) 51-05N 002-39E 9M
May 24, 2019 - 10:25 PM EDT / 2019.05.25 0225 UTC
Wind: Variable at 2 MPH (2 KT):0
Visibility: 1 mile(s):0
Sky conditions: mostly clear
Weather: mist
Temperature: 48 F (9 C)
Dew Point: 46 F (8 C)
Relative Humidity: 93%
Pressure (altimeter): 30.03 in. Hg (1017 hPa)
ob: EBFN 250225Z AUTO VRB02KT 2100 BR FEW062/// 09/08 Q1017 YLO
cycle: 2

Poznan, Poland (EPPO) 52-25N 016-50E 92M
May 24, 2019 - 10:30 PM EDT / 2019.05.25 0230 UTC
Wind: from the SW (230 degrees) at 3 MPH (3 KT):0
Visibility: greater than 7 mile(s):0
Temperature: 53 F (12 C)
Dew Point: 46 F (8 C)
Relative Humidity: 76%
Pressure (altimeter): 29.83 in. Hg (1010 hPa)
ob: EPPO 250230Z 23003KT CAVOK 12/08 Q1010 
cycle: 2



Coucher du Soleil:
21:35:57

Lever de Lune:
01:55:16 24/05/19

Coucher de Lune:
10:28:35 24/05/19

Premier Quartier 12 mai 2019
Pleine Lune 18 mai 2019
Dernier Quartier 26 mai 2019
Nouvelle Lune 3 juin 2019
Âge de lune : 20 jours,13 heures,35 minutes,67%
Les heures du jour possible étaient aujourd’hui 15:51



Use the RELOAD facility on your browser to retrieve the latest data.

Click here for a daily update of the averages/extremes to date for the month
Created by "Weather Display" software version 10.37P at this start time/date 23:05:05 22/05/2019